createdAt,value
2019-04-22T00:11:48.517Z,36.08
2019-04-22T00:14:06.323Z,34.73
2019-04-22T00:16:53.271Z,32.80
2019-04-22T00:22:07.769Z,33.58
2019-04-22T00:24:38.964Z,34.43
2019-04-22T00:27:26.137Z,34.73
2019-04-22T00:32:30.338Z,35.63
2019-04-22T00:35:03.901Z,31.62
2019-04-22T00:51:01.363Z,30.43
2019-04-22T01:07:09.260Z,31.85
2019-04-22T01:21:21.482Z,33.90
2019-04-22T01:23:34.517Z,36.98
2019-04-22T01:37:37.298Z,32.88
2019-04-22T01:40:21.441Z,32.78
2019-04-22T02:04:52.407Z,44.60
2019-04-22T02:07:26.262Z,34.00
2019-04-22T02:20:39.630Z,38.80
2019-04-22T02:28:41.102Z,32.03
2019-04-22T02:31:25.866Z,30.82
2019-04-22T02:36:22.490Z,37.67
2019-04-22T02:49:29.151Z,39.15
2019-04-22T02:52:06.339Z,47.03
2019-04-22T03:37:20.620Z,41.45
2019-04-22T03:53:15.011Z,41.05
2019-04-22T03:55:45.040Z,45.03
2019-04-22T04:09:50.024Z,58.25
2019-04-22T04:12:26.030Z,45.33
2019-04-22T04:26:05.153Z,64.70
2019-04-22T04:45:11.005Z,61.40
2019-04-22T04:50:06.990Z,75.52
2019-04-22T04:52:50.903Z,63.58
2019-04-22T05:11:58.318Z,52.75
2019-04-22T05:24:44.316Z,55.88
2019-04-22T05:27:31.449Z,62.23
2019-04-22T05:30:21.230Z,51.42
2019-04-22T05:32:30.711Z,55.23
2019-04-22T05:46:20.616Z,49.88
2019-04-22T05:48:54.218Z,60.45
2019-04-22T05:51:31.514Z,63.95
2019-04-22T05:54:12.418Z,46.28
2019-04-22T06:08:04.203Z,41.42
2019-04-22T06:10:46.610Z,38.30
2019-04-22T06:24:23.276Z,31.48
2019-04-22T06:29:26.643Z,41.77
2019-04-22T06:43:10.320Z,33.83
2019-04-22T06:45:35.047Z,28.25
2019-04-22T06:54:01.712Z,29.87
2019-04-22T06:56:35.810Z,29.57
2019-04-22T07:05:35.605Z,18.52
2019-04-22T07:08:16.046Z,18.70
2019-04-22T07:10:42.022Z,18.87
2019-04-22T07:13:23.569Z,22.85
2019-04-22T07:20:56.402Z,26.00
2019-04-22T07:23:34.835Z,28.27
2019-04-22T07:26:08.597Z,25.68
2019-04-22T07:28:42.254Z,32.28
2019-04-22T07:31:17.368Z,32.42
2019-04-22T07:33:51.742Z,24.85
2019-04-22T07:38:56.475Z,36.25
2019-04-22T07:41:34.450Z,34.03
2019-04-22T07:44:13.854Z,33.20
2019-04-22T07:46:43.171Z,37.95
2019-04-22T07:49:18.351Z,53.55
2019-04-22T07:52:03.324Z,24.95
2019-04-22T07:54:29.209Z,23.98
2019-04-22T07:57:12.134Z,20.10
2019-04-22T07:59:40.868Z,23.27
2019-04-22T08:02:15.781Z,24.82
2019-04-22T08:07:29.976Z,25.30
2019-04-22T08:10:12.515Z,26.57
2019-04-22T08:15:05.781Z,22.45
2019-04-22T08:20:19.281Z,22.22
2019-04-22T08:23:01.133Z,32.63
2019-04-22T08:25:27.170Z,32.35
2019-04-22T08:28:05.427Z,20.00
2019-04-22T08:30:41.162Z,20.50
2019-04-22T08:33:16.067Z,25.75
2019-04-22T08:36:00.077Z,22.80
2019-04-22T08:41:20.860Z,18.25
2019-04-22T08:44:02.433Z,22.07
2019-04-22T08:51:30.877Z,19.32
2019-04-22T08:54:06.137Z,22.58
2019-04-22T08:56:56.880Z,20.45
2019-04-22T08:59:12.543Z,16.87
2019-04-22T09:01:45.353Z,23.05
2019-04-22T09:04:16.263Z,14.28
2019-04-22T09:07:07.667Z,14.28
2019-04-22T09:21:12.212Z,22.62
2019-04-22T09:23:33.923Z,22.27
2019-04-22T09:39:19.518Z,24.50
2019-04-22T09:41:46.548Z,19.77
2019-04-22T09:44:23.090Z,23.30
2019-04-22T09:47:00.344Z,16.70
2019-04-22T10:00:25.363Z,13.65
2019-04-22T10:17:03.264Z,12.93
2019-04-22T10:19:30.031Z,15.03
2019-04-22T10:22:14.964Z,16.35
2019-04-22T10:24:45.103Z,12.88
2019-04-22T10:27:24.361Z,20.50
2019-04-22T10:30:02.798Z,18.05
2019-04-22T10:32:25.540Z,24.85
2019-04-22T10:34:47.695Z,18.98
2019-04-22T10:37:17.066Z,18.05
2019-04-22T10:39:55.126Z,24.23
2019-04-22T10:42:23.064Z,18.02
2019-04-22T10:51:34.886Z,14.73
2019-04-22T10:54:07.284Z,18.05
2019-04-22T11:07:19.394Z,13.48
2019-04-22T11:09:58.969Z,16.37
2019-04-22T11:23:50.396Z,18.15
2019-04-22T11:26:23.950Z,17.15
2019-04-22T11:40:25.429Z,14.90
2019-04-22T11:42:52.224Z,16.75
2019-04-22T11:45:29.273Z,13.05
2019-04-22T11:48:01.403Z,13.30
2019-04-22T11:50:40.038Z,17.80
2019-04-22T11:53:10.968Z,16.23
2019-04-22T12:07:12.844Z,16.62
2019-04-22T12:09:45.837Z,15.50
2019-04-22T12:12:23.630Z,19.70
2019-04-22T12:14:56.362Z,14.35
2019-04-22T12:17:36.058Z,23.20
2019-04-22T12:20:12.544Z,19.27
2019-04-22T12:22:54.949Z,14.90
2019-04-22T12:29:15.380Z,16.27
2019-04-22T12:31:47.567Z,14.35
2019-04-22T12:34:25.754Z,18.77
2019-04-22T12:36:58.398Z,16.90
2019-04-22T12:46:52.266Z,17.23
2019-04-22T13:18:06.087Z,14.93
2019-04-22T13:20:30.445Z,15.70
2019-04-22T13:23:04.028Z,21.17
2019-04-22T13:25:34.854Z,25.20
2019-04-22T13:28:09.238Z,15.18
2019-04-22T13:30:40.903Z,12.60
2019-04-22T13:33:16.810Z,25.12
2019-04-22T13:35:50.067Z,17.67
2019-04-22T13:38:22.771Z,19.73
2019-04-22T13:41:09.816Z,18.60
2019-04-22T13:43:31.229Z,18.37
2019-04-22T13:46:06.034Z,17.95
2019-04-22T13:48:59.083Z,17.98
2019-04-22T13:51:45.069Z,36.73
2019-04-22T13:54:40.441Z,19.62
2019-04-22T13:56:37.349Z,20.55
2019-04-22T13:58:58.490Z,20.80
2019-04-22T14:01:25.549Z,22.37
2019-04-22T14:06:32.861Z,20.82
2019-04-22T14:09:07.656Z,25.25
2019-04-22T14:11:46.167Z,21.48
2019-04-22T14:14:12.617Z,26.60
2019-04-22T14:16:46.902Z,24.47
2019-04-22T14:19:18.393Z,32.15
2019-04-22T14:21:49.736Z,18.00
2019-04-22T14:24:23.716Z,20.15
2019-04-22T14:27:13.577Z,16.43
2019-04-22T14:29:29.329Z,15.72
2019-04-22T14:34:34.260Z,21.05
2019-04-22T14:37:05.769Z,19.95
2019-04-22T14:39:37.966Z,20.40
2019-04-22T14:42:28.458Z,18.87
2019-04-22T14:44:03.788Z,19.98
2019-04-22T14:45:20.539Z,23.62
2019-04-22T14:47:45.536Z,27.90
2019-04-22T14:50:16.076Z,26.23
2019-04-22T14:52:46.238Z,18.12
2019-04-22T14:55:06.073Z,23.00
2019-04-22T14:57:32.306Z,21.33
2019-04-22T15:00:06.139Z,16.27
2019-04-22T15:02:39.419Z,31.95
2019-04-22T15:05:12.243Z,18.27
2019-04-22T15:07:44.406Z,24.23
2019-04-22T15:10:15.999Z,35.73
2019-04-22T15:12:51.377Z,17.25
2019-04-22T15:15:40.554Z,19.05
2019-04-22T15:18:11.597Z,25.48
2019-04-22T15:20:47.464Z,24.40
2019-04-22T15:25:48.392Z,20.50
2019-04-22T15:28:19.643Z,29.05
2019-04-22T15:30:51.197Z,18.12
2019-04-22T15:33:25.609Z,24.57
2019-04-22T15:35:56.463Z,26.57
2019-04-22T15:38:28.259Z,26.48
2019-04-22T15:41:00.749Z,27.05
2019-04-22T15:43:35.113Z,26.57
2019-04-22T15:46:05.698Z,30.75
2019-04-22T15:48:37.703Z,35.68
2019-04-22T15:51:10.938Z,26.17
2019-04-22T15:53:43.044Z,32.05
2019-04-22T15:56:14.742Z,17.23
2019-04-22T15:58:46.064Z,24.63
2019-04-22T16:01:25.196Z,20.20
2019-04-22T16:03:50.595Z,22.05
2019-04-22T16:06:23.999Z,34.90
2019-04-22T16:08:59.958Z,18.95
2019-04-22T16:11:31.798Z,26.37
2019-04-22T16:14:04.311Z,28.83
2019-04-22T16:16:37.202Z,26.70
2019-04-22T16:19:09.531Z,22.13
2019-04-22T16:21:49.034Z,25.72
2019-04-22T16:24:27.917Z,20.25
2019-04-22T16:27:04.697Z,23.20
2019-04-22T16:29:37.201Z,31.27
2019-04-22T16:32:09.470Z,27.05
2019-04-22T16:34:40.297Z,30.40
2019-04-22T16:37:14.639Z,28.47
2019-04-22T16:39:48.453Z,35.88
2019-04-22T16:42:28.956Z,27.90
2019-04-22T16:44:51.306Z,39.10
2019-04-22T16:47:23.663Z,31.60
2019-04-22T16:49:55.330Z,26.37
2019-04-22T16:52:28.066Z,37.23
2019-04-22T16:55:01.089Z,29.10
2019-04-22T16:57:33.604Z,32.48
2019-04-22T17:00:11.168Z,32.42
2019-04-22T17:02:51.831Z,36.98
2019-04-22T17:05:41.478Z,29.82
2019-04-22T17:08:14.263Z,54.13
2019-04-22T17:10:46.050Z,29.52
2019-04-22T17:13:24.488Z,28.38
2019-04-22T17:15:52.017Z,38.60
2019-04-22T17:18:23.274Z,29.15
2019-04-22T17:20:55.782Z,31.87
2019-04-22T17:23:29.673Z,32.30
2019-04-22T17:26:03.239Z,31.48
2019-04-22T17:28:35.547Z,38.20
2019-04-22T17:31:06.716Z,38.90
2019-04-22T17:33:39.389Z,32.17
2019-04-22T17:36:12.009Z,35.78
2019-04-22T17:38:50.898Z,37.85
2019-04-22T17:41:24.314Z,36.23
2019-04-22T17:44:16.855Z,39.10
2019-04-22T17:46:35.942Z,41.85
2019-04-22T17:49:21.900Z,36.63
2019-04-22T17:52:17.669Z,28.38
2019-04-22T17:54:49.672Z,41.20
2019-04-22T17:57:21.577Z,35.70
2019-04-22T17:59:51.776Z,38.53
2019-04-22T18:02:25.214Z,45.20
2019-04-22T18:04:46.776Z,58.65
2019-04-22T18:15:11.449Z,35.05
2019-04-22T18:17:44.993Z,40.88
2019-04-22T18:20:13.131Z,38.38
2019-04-22T18:22:38.208Z,50.40
2019-04-22T18:25:11.404Z,44.50
2019-04-22T18:28:00.943Z,39.57
2019-04-22T18:30:20.464Z,43.20
2019-04-22T18:33:00.297Z,48.85
2019-04-22T18:35:32.361Z,57.08
2019-04-22T18:38:09.232Z,46.80
2019-04-22T18:40:38.499Z,49.13
2019-04-22T18:43:17.175Z,40.78
2019-04-22T18:45:54.619Z,41.70
2019-04-22T18:48:08.746Z,44.33
2019-04-22T18:50:58.158Z,52.45
2019-04-22T18:53:44.808Z,63.73
2019-04-22T18:56:13.919Z,56.28
2019-04-22T19:00:53.331Z,42.62
2019-04-22T19:03:30.026Z,43.38
2019-04-22T19:06:29.170Z,57.85
2019-04-22T19:08:59.119Z,74.22
2019-04-22T19:11:32.035Z,85.67
2019-04-22T19:14:05.985Z,70.97
2019-04-22T19:16:36.167Z,77.00
2019-04-22T19:21:37.696Z,79.62
2019-04-22T19:24:04.367Z,70.80
2019-04-22T19:26:50.070Z,73.25
2019-04-22T19:29:20.386Z,68.07
2019-04-22T19:31:52.337Z,86.53
2019-04-22T19:34:20.414Z,77.25
2019-04-22T19:36:54.455Z,77.27
2019-04-22T19:39:22.569Z,103.60
2019-04-22T19:42:00.914Z,104.40
2019-04-22T19:44:36.255Z,125.20
2019-04-22T19:49:48.111Z,91.45
2019-04-22T19:52:18.903Z,113.03
2019-04-22T19:54:46.746Z,103.58
2019-04-22T19:57:11.591Z,102.40
2019-04-22T19:59:45.225Z,106.55
2019-04-22T20:02:31.530Z,102.00
2019-04-22T20:05:26.158Z,106.25
2019-04-22T20:07:48.680Z,103.45
2019-04-22T20:10:25.140Z,97.57
2019-04-22T20:12:58.385Z,116.30
2019-04-22T20:15:26.931Z,108.92
2019-04-22T20:18:21.797Z,95.10
2019-04-22T20:20:40.954Z,108.78
2019-04-22T20:23:10.432Z,105.97
2019-04-22T20:25:46.369Z,88.15
2019-04-22T20:28:29.106Z,78.22
2019-04-22T20:30:55.069Z,93.47
2019-04-22T20:33:29.507Z,81.87
2019-04-22T20:36:03.390Z,98.07
2019-04-22T20:38:38.871Z,110.48
2019-04-22T20:41:10.496Z,100.45
2019-04-22T20:43:50.238Z,94.25
2019-04-22T20:46:19.205Z,86.87
2019-04-22T20:48:55.006Z,87.45
2019-04-22T20:51:24.414Z,96.55
2019-04-22T20:54:02.676Z,83.70
2019-04-22T20:56:25.169Z,80.87
2019-04-22T20:59:02.073Z,77.80
2019-04-22T21:01:39.206Z,87.15
2019-04-22T21:03:57.608Z,87.90
2019-04-22T21:06:42.292Z,97.02
2019-04-22T21:09:18.504Z,90.43
2019-04-22T21:11:48.388Z,93.25
2019-04-22T21:14:21.615Z,86.17
2019-04-22T21:17:07.638Z,80.22
2019-04-22T21:19:47.656Z,74.37
2019-04-22T21:22:18.102Z,75.37
2019-04-22T21:24:47.468Z,75.80
2019-04-22T21:27:20.989Z,86.75
2019-04-22T21:29:49.232Z,81.55
2019-04-22T21:32:31.396Z,91.15
2019-04-22T21:35:21.582Z,91.65
2019-04-22T21:37:39.843Z,79.03
2019-04-22T21:39:58.603Z,75.95
2019-04-22T21:42:41.744Z,67.87
2019-04-22T21:45:07.235Z,77.60
2019-04-22T21:47:49.972Z,65.20
2019-04-22T21:50:35.698Z,63.02
2019-04-22T21:53:00.671Z,61.83
2019-04-22T21:55:32.912Z,59.73
2019-04-22T21:58:07.996Z,64.67
2019-04-22T22:03:17.775Z,67.17
2019-04-22T22:05:39.173Z,69.95
2019-04-22T22:08:30.182Z,71.70
2019-04-22T22:10:53.532Z,65.85
2019-04-22T22:13:30.689Z,59.75
2019-04-22T22:15:59.270Z,64.32
2019-04-22T22:18:29.054Z,61.42
2019-04-22T22:21:25.295Z,96.13
2019-04-22T22:23:43.642Z,63.28
2019-04-22T22:26:06.830Z,60.38
2019-04-22T22:31:31.830Z,73.57
2019-04-22T22:33:54.187Z,70.72
2019-04-22T22:36:27.141Z,67.60
2019-04-22T22:39:00.327Z,76.45
2019-04-22T22:41:14.339Z,70.87
2019-04-22T22:43:50.531Z,62.65
2019-04-22T22:46:31.925Z,60.20
2019-04-22T22:49:18.348Z,67.47
2019-04-22T22:52:13.243Z,73.67
2019-04-22T22:54:24.014Z,81.00
2019-04-22T22:57:00.376Z,77.47
2019-04-22T22:59:33.113Z,71.62
2019-04-22T23:02:03.182Z,90.00
2019-04-22T23:07:17.693Z,91.28
2019-04-22T23:09:45.786Z,95.05
2019-04-22T23:12:30.680Z,86.85
2019-04-22T23:14:50.027Z,73.40
2019-04-22T23:17:07.715Z,50.20
2019-04-22T23:19:40.452Z,65.62
2019-04-22T23:22:20.469Z,85.17
2019-04-22T23:24:54.452Z,69.17
2019-04-22T23:27:47.691Z,66.92
2019-04-22T23:30:18.428Z,69.42
2019-04-22T23:32:59.254Z,69.32
2019-04-22T23:35:33.605Z,69.30
2019-04-22T23:38:09.214Z,70.87
2019-04-22T23:40:44.355Z,55.90
2019-04-22T23:43:24.181Z,69.75
2019-04-22T23:45:53.321Z,73.25
2019-04-22T23:48:19.188Z,75.22
2019-04-22T23:50:55.831Z,93.20
2019-04-22T23:53:57.337Z,87.63
2019-04-22T23:58:52.675Z,72.70
